Time;durP1;ratioP1;P1;durP2;ratioP2;P2;SDS_P1;SDS_P2;PMS_P1;PMS_P2;Temp;Humidity;BMP_temperature;BMP_pressure;BME280_temperature;BME280_humidity;BME280_pressure;Samples;Min_cycle;Max_cycle;Signal;HPM_P1;HPM_P2
2023/06/30 00:00:11;;;;;;;6.60;5.80;;;20.60;90.40;;;;;;5051949;28;20479;-68
2023/06/30 00:02:40;;;;;;;6.83;5.87;;;20.60;90.00;;;;;;5051284;28;20424;-68
2023/06/30 00:05:11;;;;;;;6.23;5.63;;;20.60;89.20;;;;;;5051810;28;20482;-69
2023/06/30 00:07:39;;;;;;;6.90;6.27;;;20.70;88.70;;;;;;5052429;28;20448;-67
2023/06/30 00:10:09;;;;;;;6.33;5.73;;;20.80;88.90;;;;;;5052051;28;20482;-68
2023/06/30 00:12:37;;;;;;;6.20;5.70;;;20.90;90.00;;;;;;5050803;28;20440;-68
2023/06/30 00:15:06;;;;;;;6.40;5.80;;;20.90;90.90;;;;;;5036646;28;21238;-68
2023/06/30 00:17:35;;;;;;;7.40;6.03;;;20.90;91.30;;;;;;5031968;28;20445;-68
2023/06/30 00:20:05;;;;;;;6.70;5.37;;;20.90;90.80;;;;;;5031952;28;20473;-68
2023/06/30 00:22:35;;;;;;;7.80;6.37;;;20.90;89.70;;;;;;5029696;28;20445;-68
2023/06/30 00:25:05;;;;;;;6.27;5.60;;;20.90;90.80;;;;;;5031558;28;20540;-68
2023/06/30 00:27:33;;;;;;;7.13;5.60;;;20.80;90.30;;;;;;5031319;28;20499;-68
2023/06/30 00:30:01;;;;;;;6.17;5.67;;;20.80;90.90;;;;;;5031878;28;20437;-68
2023/06/30 00:32:31;;;;;;;13.77;5.90;;;20.70;89.80;;;;;;5030404;28;20483;-68
2023/06/30 00:35:00;;;;;;;6.30;5.80;;;20.80;90.70;;;;;;5031447;28;20438;-68
2023/06/30 00:37:28;;;;;;;7.30;6.40;;;20.80;90.50;;;;;;5031409;28;20887;-68
2023/06/30 00:39:57;;;;;;;6.93;6.30;;;20.70;90.10;;;;;;5031030;28;20473;-68
2023/06/30 00:42:25;;;;;;;9.50;6.27;;;20.80;90.10;;;;;;5030567;28;20444;-68
2023/06/30 00:44:54;;;;;;;7.53;6.00;;;20.80;90.10;;;;;;5030699;28;20465;-68
2023/06/30 00:47:22;;;;;;;6.17;5.40;;;20.70;89.90;;;;;;5031374;28;20503;-68
2023/06/30 00:49:50;;;;;;;6.73;6.07;;;20.60;90.10;;;;;;5030984;28;20469;-68
2023/06/30 00:52:18;;;;;;;6.47;5.97;;;20.40;91.30;;;;;;5030511;28;20484;-68
2023/06/30 00:54:47;;;;;;;6.97;6.20;;;20.30;91.30;;;;;;5029971;28;20918;-68
2023/06/30 00:57:16;;;;;;;7.20;6.50;;;20.20;93.00;;;;;;5031380;28;20888;-68
2023/06/30 00:59:44;;;;;;;7.57;6.53;;;20.10;92.60;;;;;;5031069;28;20476;-68
2023/06/30 01:02:20;;;;;;;7.30;6.57;;;20.10;93.50;;;;;;5030578;28;20967;-67
2023/06/30 01:04:54;;;;;;;9.80;8.80;;;20.10;93.20;;;;;;5030579;28;20460;-68
2023/06/30 01:07:25;;;;;;;7.63;6.60;;;20.00;93.60;;;;;;5031261;28;20441;-68
2023/06/30 01:09:59;;;;;;;6.87;5.90;;;20.00;94.00;;;;;;5030912;28;20526;-68
2023/06/30 01:12:29;;;;;;;6.93;6.33;;;19.80;94.60;;;;;;5029768;28;20487;-68
2023/06/30 01:14:57;;;;;;;7.20;6.53;;;19.70;95.20;;;;;;5030746;28;20556;-68
2023/06/30 01:17:26;;;;;;;6.37;5.80;;;19.70;95.00;;;;;;5030418;28;20539;-68
2023/06/30 01:19:56;;;;;;;7.63;6.93;;;19.70;95.10;;;;;;5030878;28;20560;-68
2023/06/30 01:22:26;;;;;;;7.63;6.93;;;19.80;95.20;;;;;;5029769;28;20507;-67
2023/06/30 01:25:00;;;;;;;7.53;6.93;;;19.80;95.50;;;;;;5030471;28;20457;-67
2023/06/30 01:27:31;;;;;;;7.10;6.40;;;19.80;95.50;;;;;;5030985;28;20532;-67
2023/06/30 01:30:00;;;;;;;7.87;7.10;;;19.70;95.60;;;;;;5030425;28;20441;-66
2023/06/30 01:32:29;;;;;;;8.63;7.93;;;19.70;95.90;;;;;;5029759;28;21344;-68
2023/06/30 01:34:57;;;;;;;8.50;7.70;;;19.70;95.80;;;;;;5030410;28;20468;-68
2023/06/30 01:37:25;;;;;;;7.63;6.93;;;19.60;96.10;;;;;;5031277;28;20830;-68
2023/06/30 01:39:53;;;;;;;7.50;6.77;;;19.50;95.60;;;;;;5030558;28;20512;-68
2023/06/30 01:42:22;;;;;;;7.77;7.17;;;19.50;96.60;;;;;;5030184;28;20984;-68
2023/06/30 01:44:52;;;;;;;7.47;6.67;;;19.40;97.80;;;;;;5030040;28;20471;-68
2023/06/30 01:47:20;;;;;;;7.10;6.50;;;19.30;97.20;;;;;;5030634;28;20448;-68
2023/06/30 01:49:48;;;;;;;7.53;6.93;;;19.30;97.50;;;;;;5030568;28;20445;-68
2023/06/30 01:52:17;;;;;;;7.97;6.80;;;19.20;97.80;;;;;;5029677;28;20502;-68
2023/06/30 01:54:45;;;;;;;6.93;6.43;;;19.20;97.30;;;;;;5029599;28;20475;-68
2023/06/30 01:57:13;;;;;;;7.50;7.00;;;19.20;98.10;;;;;;5030327;28;20452;-68
2023/06/30 01:59:41;;;;;;;7.80;7.10;;;19.20;97.80;;;;;;5030652;28;20472;-68
2023/06/30 02:02:10;;;;;;;7.97;7.17;;;19.20;98.10;;;;;;5029743;28;20938;-68
2023/06/30 02:04:38;;;;;;;9.80;8.70;;;19.30;97.70;;;;;;5029764;28;20473;-68
2023/06/30 02:07:06;;;;;;;9.50;8.60;;;19.40;97.90;;;;;;5030871;28;20471;-68
2023/06/30 02:09:34;;;;;;;8.63;7.83;;;19.40;97.70;;;;;;5030509;28;20448;-68
2023/06/30 02:12:15;;;;;;;9.33;8.30;;;19.40;97.70;;;;;;5030605;28;20443;-69
2023/06/30 02:14:43;;;;;;;13.97;9.20;;;19.30;97.90;;;;;;5029841;28;20991;-68
2023/06/30 02:17:13;;;;;;;8.60;7.90;;;19.30;98.10;;;;;;5030601;28;20514;-68
2023/06/30 02:19:41;;;;;;;7.93;7.40;;;19.20;98.30;;;;;;5030129;28;20540;-68
2023/06/30 02:22:09;;;;;;;8.90;8.10;;;19.10;98.30;;;;;;5029698;28;20951;-68
2023/06/30 02:24:37;;;;;;;8.47;7.87;;;19.00;98.60;;;;;;5029325;28;20473;-68
2023/06/30 02:27:08;;;;;;;9.13;8.27;;;18.90;99.30;;;;;;5030141;28;20532;-68
2023/06/30 02:29:36;;;;;;;8.63;7.93;;;18.80;99.90;;;;;;5040820;28;20863;-68
2023/06/30 02:32:05;;;;;;;8.07;7.37;;;18.70;99.90;;;;;;5049504;28;20444;-68
2023/06/30 02:34:34;;;;;;;9.17;8.33;;;18.60;99.90;;;;;;5048974;28;20459;-68
2023/06/30 02:37:02;;;;;;;8.40;7.70;;;18.60;99.90;;;;;;5050085;28;20440;-68
2023/06/30 02:39:30;;;;;;;8.00;7.40;;;18.50;99.90;;;;;;5050162;28;20446;-68
2023/06/30 02:41:58;;;;;;;8.80;8.00;;;18.60;99.90;;;;;;5049640;28;20522;-68
2023/06/30 02:44:26;;;;;;;9.43;8.43;;;18.60;99.90;;;;;;5049076;28;20564;-68
2023/06/30 02:46:54;;;;;;;8.20;7.60;;;18.60;99.90;;;;;;5052672;28;20497;-68
2023/06/30 02:49:24;;;;;;;8.30;7.60;;;18.60;99.90;;;;;;5054078;28;20490;-68
2023/06/30 02:51:53;;;;;;;9.27;8.33;;;18.70;99.90;;;;;;5054200;28;20475;-68
2023/06/30 02:54:21;;;;;;;8.63;7.83;;;18.70;99.90;;;;;;5053065;28;20479;-68
2023/06/30 02:56:49;;;;;;;9.10;8.27;;;18.70;99.90;;;;;;5057963;28;20448;-68
2023/06/30 02:59:17;;;;;;;7.77;7.07;;;18.70;99.90;;;;;;5060372;28;20476;-68
2023/06/30 03:01:45;;;;;;;8.27;7.57;;;18.80;99.90;;;;;;5058577;28;20486;-68
2023/06/30 03:04:13;;;;;;;8.70;7.90;;;18.80;99.90;;;;;;5058833;28;20521;-68
2023/06/30 03:06:41;;;;;;;8.27;7.57;;;18.80;99.90;;;;;;5061156;28;20467;-68
2023/06/30 03:09:11;;;;;;;9.20;8.20;;;18.80;99.90;;;;;;5061344;28;20451;-68
2023/06/30 03:11:39;;;;;;;8.13;7.63;;;18.80;99.90;;;;;;5052316;28;20757;-68
2023/06/30 03:14:07;;;;;;;7.93;7.20;;;18.70;99.90;;;;;;5039635;28;20840;-68
2023/06/30 03:16:38;;;;;;;9.00;8.30;;;18.60;99.90;;;;;;5040609;28;20440;-69
2023/06/30 03:19:06;;;;;;;8.10;7.50;;;18.60;99.90;;;;;;5034158;28;20503;-68
2023/06/30 03:21:34;;;;;;;9.07;8.17;;;18.60;99.90;;;;;;5033843;28;20481;-68
2023/06/30 03:24:02;;;;;;;8.43;7.67;;;18.50;99.90;;;;;;5032321;28;20468;-69
2023/06/30 03:26:31;;;;;;;9.10;8.40;;;18.50;99.90;;;;;;5033028;28;20961;-69
2023/06/30 03:29:01;;;;;;;8.90;8.07;;;18.40;99.90;;;;;;5034559;28;20532;-68
2023/06/30 03:31:29;;;;;;;9.47;8.73;;;18.30;99.90;;;;;;5033717;28;20437;-68
2023/06/30 03:33:58;;;;;;;8.80;8.10;;;18.30;99.90;;;;;;5031932;28;20496;-68
2023/06/30 03:36:27;;;;;;;8.40;7.60;;;18.30;99.90;;;;;;5033222;28;20527;-68
2023/06/30 03:38:55;;;;;;;10.30;7.90;;;18.30;99.90;;;;;;5032877;28;20437;-68
2023/06/30 03:41:23;;;;;;;8.20;7.37;;;18.30;99.90;;;;;;5032717;28;20539;-68
2023/06/30 03:43:52;;;;;;;9.07;7.73;;;18.20;99.90;;;;;;5031389;28;20544;-68
2023/06/30 03:46:20;;;;;;;9.00;8.10;;;18.20;99.90;;;;;;5032678;28;20480;-68
2023/06/30 03:48:48;;;;;;;10.40;9.40;;;18.20;99.90;;;;;;5032504;28;20444;-68
2023/06/30 03:51:16;;;;;;;10.37;8.80;;;18.10;99.90;;;;;;5032603;28;20473;-69
2023/06/30 03:53:44;;;;;;;11.07;8.27;;;18.10;99.90;;;;;;5031214;28;20563;-69
2023/06/30 03:56:13;;;;;;;9.20;8.10;;;18.00;99.90;;;;;;5032347;28;20444;-67
2023/06/30 03:58:41;;;;;;;8.43;7.73;;;18.00;99.90;;;;;;5031063;28;20510;-67
2023/06/30 04:01:11;;;;;;;10.23;8.87;;;18.00;99.90;;;;;;5032227;28;20567;-67
2023/06/30 04:03:39;;;;;;;10.60;9.00;;;18.10;99.90;;;;;;5031290;28;20522;-67
2023/06/30 04:06:07;;;;;;;8.97;8.17;;;18.10;99.90;;;;;;5031966;28;21120;-69
2023/06/30 04:08:35;;;;;;;9.20;8.40;;;18.10;99.90;;;;;;5032252;28;20503;-67
2023/06/30 04:11:03;;;;;;;9.40;8.60;;;18.20;99.90;;;;;;5031977;28;20448;-67
2023/06/30 04:13:33;;;;;;;9.00;7.87;;;18.30;99.90;;;;;;5031065;28;20827;-66
2023/06/30 04:16:01;;;;;;;8.77;7.87;;;18.40;99.90;;;;;;5032506;28;20947;-67
2023/06/30 04:18:30;;;;;;;8.53;7.83;;;18.40;99.90;;;;;;5031970;28;20520;-67
2023/06/30 04:20:59;;;;;;;9.00;8.20;;;18.50;99.90;;;;;;5032346;28;20535;-68
2023/06/30 04:23:27;;;;;;;8.93;8.03;;;18.50;99.90;;;;;;5030677;28;20551;-68
2023/06/30 04:25:56;;;;;;;9.63;8.57;;;18.60;99.90;;;;;;5031710;28;20475;-68
2023/06/30 04:28:24;;;;;;;9.77;8.60;;;18.70;99.90;;;;;;5031554;28;20441;-68
2023/06/30 04:30:52;;;;;;;8.33;7.60;;;18.90;99.90;;;;;;5031936;28;20857;-68
2023/06/30 04:33:20;;;;;;;8.80;8.00;;;19.10;99.90;;;;;;5030566;28;20483;-69
2023/06/30 04:35:50;;;;;;;9.97;8.93;;;19.40;99.80;;;;;;5031605;28;20515;-68
2023/06/30 04:38:19;;;;;;;9.40;8.60;;;19.40;99.90;;;;;;5031408;28;20451;-69
2023/06/30 04:40:50;;;;;;;8.27;7.40;;;19.60;99.90;;;;;;5031576;28;20495;-69
2023/06/30 04:43:18;;;;;;;8.47;7.70;;;19.70;99.90;;;;;;5029963;28;20991;-68
2023/06/30 04:45:47;;;;;;;9.27;8.47;;;19.70;99.90;;;;;;5031039;28;20441;-66
2023/06/30 04:48:15;;;;;;;8.50;7.80;;;19.70;99.50;;;;;;5031238;28;20889;-67
2023/06/30 04:50:43;;;;;;;8.03;7.30;;;19.70;99.40;;;;;;5031162;28;20484;-68
2023/06/30 04:53:13;;;;;;;9.67;8.77;;;19.70;99.60;;;;;;5030022;28;20898;-69
2023/06/30 04:55:41;;;;;;;8.50;7.73;;;19.60;99.40;;;;;;5030576;28;20440;-69
2023/06/30 04:58:09;;;;;;;9.10;8.30;;;19.60;99.90;;;;;;5030570;28;20452;-69
2023/06/30 05:00:37;;;;;;;9.10;8.40;;;19.60;99.90;;;;;;5030938;28;20451;-69
2023/06/30 05:03:05;;;;;;;9.30;8.33;;;19.70;99.90;;;;;;5029054;28;20489;-68
2023/06/30 05:05:33;;;;;;;10.13;8.70;;;19.80;99.90;;;;;;5031082;28;21244;-69
2023/06/30 05:08:01;;;;;;;7.63;7.07;;;19.80;99.90;;;;;;5030523;28;20977;-68
2023/06/30 05:10:31;;;;;;;7.80;7.20;;;19.80;99.90;;;;;;5030739;28;20946;-68
2023/06/30 05:12:59;;;;;;;7.83;7.20;;;19.90;99.90;;;;;;5035174;28;20968;-69
2023/06/30 05:15:27;;;;;;;9.40;7.90;;;19.90;99.90;;;;;;5053953;28;20436;-69
2023/06/30 05:17:55;;;;;;;8.87;8.17;;;19.90;99.90;;;;;;5047186;28;20456;-69
2023/06/30 05:20:23;;;;;;;9.00;7.97;;;19.80;99.40;;;;;;5041093;28;20459;-68
2023/06/30 05:22:51;;;;;;;8.43;7.80;;;19.80;99.60;;;;;;5038618;28;20481;-68
2023/06/30 05:25:19;;;;;;;8.37;7.67;;;19.90;99.70;;;;;;5050811;28;20468;-68
2023/06/30 05:27:49;;;;;;;9.70;8.80;;;19.80;99.60;;;;;;5030845;28;20441;-68
2023/06/30 05:30:17;;;;;;;8.53;7.73;;;19.90;99.30;;;;;;5030083;28;20536;-68
2023/06/30 05:32:45;;;;;;;7.87;7.27;;;19.90;99.70;;;;;;5028238;28;20487;-68
2023/06/30 05:35:13;;;;;;;10.17;9.17;;;20.00;99.10;;;;;;5030273;28;20503;-68
2023/06/30 05:37:41;;;;;;;10.20;9.27;;;20.00;99.20;;;;;;5029181;28;20444;-72
2023/06/30 05:40:09;;;;;;;10.67;9.47;;;19.90;99.70;;;;;;5030380;28;20524;-72
2023/06/30 05:42:37;;;;;;;11.50;9.13;;;19.80;99.90;;;;;;5029039;28;20491;-70
2023/06/30 05:45:08;;;;;;;10.67;9.63;;;19.60;99.90;;;;;;5030171;28;20449;-71
2023/06/30 05:47:37;;;;;;;10.63;9.60;;;19.40;99.90;;;;;;5030305;28;20479;-69
2023/06/30 05:50:06;;;;;;;10.20;9.30;;;19.40;99.90;;;;;;5029967;28;20445;-69
2023/06/30 05:52:34;;;;;;;10.80;9.80;;;19.20;99.90;;;;;;5028870;28;20452;-69
2023/06/30 05:55:02;;;;;;;11.63;10.40;;;19.10;99.90;;;;;;5029942;28;20437;-70
2023/06/30 05:57:30;;;;;;;13.13;11.50;;;19.10;99.90;;;;;;5030232;28;21104;-69
2023/06/30 05:59:59;;;;;;;12.80;11.53;;;19.20;99.90;;;;;;5030237;28;20470;-71
2023/06/30 06:02:29;;;;;;;14.87;13.07;;;19.00;99.90;;;;;;5029030;28;20542;-70
2023/06/30 06:04:57;;;;;;;18.40;12.60;;;18.80;99.90;;;;;;5029615;28;21014;-70
2023/06/30 06:07:25;;;;;;;15.20;11.67;;;18.70;99.90;;;;;;5030220;28;20441;-71
2023/06/30 06:09:54;;;;;;;16.10;14.60;;;18.60;99.90;;;;;;5030300;28;20859;-71
2023/06/30 06:12:22;;;;;;;14.70;13.30;;;18.50;99.90;;;;;;5029718;28;20943;-71
2023/06/30 06:14:50;;;;;;;16.13;14.57;;;18.50;99.90;;;;;;5030059;28;20457;-70
2023/06/30 06:17:18;;;;;;;15.03;13.63;;;18.40;99.90;;;;;;5030014;28;20540;-70
2023/06/30 06:19:47;;;;;;;16.10;14.60;;;18.40;99.90;;;;;;5029780;28;20467;-70
2023/06/30 06:22:15;;;;;;;17.37;15.50;;;18.40;99.90;;;;;;5029518;28;20476;-70
2023/06/30 06:24:43;;;;;;;18.53;16.93;;;18.50;99.90;;;;;;5029230;28;20461;-70
2023/06/30 06:27:11;;;;;;;16.10;14.70;;;18.50;99.90;;;;;;5029705;28;20445;-70
2023/06/30 06:29:39;;;;;;;19.10;17.20;;;18.50;99.90;;;;;;5029680;28;20476;-71
2023/06/30 06:32:08;;;;;;;18.60;17.00;;;18.60;99.90;;;;;;5029189;28;20524;-70
2023/06/30 06:34:38;;;;;;;17.80;16.27;;;18.60;99.90;;;;;;5029116;28;20537;-71
2023/06/30 06:37:07;;;;;;;18.57;16.67;;;18.70;99.90;;;;;;5029465;28;20539;-71
2023/06/30 06:39:35;;;;;;;18.30;16.53;;;18.80;99.90;;;;;;5029714;28;20445;-70
2023/06/30 06:42:04;;;;;;;24.23;21.90;;;18.80;99.90;;;;;;5029556;28;20451;-70
2023/06/30 06:44:32;;;;;;;21.67;19.50;;;18.90;99.90;;;;;;5028488;28;20499;-71
2023/06/30 06:47:37;;;;;;;19.23;17.37;;;19.10;99.90;;;;;;5029501;28;20445;-71
2023/06/30 06:50:06;;;;;;;15.50;14.33;;;19.20;99.90;;;;;;5029854;28;20445;-70
2023/06/30 06:52:35;;;;;;;17.47;15.80;;;19.30;99.90;;;;;;5028384;28;20531;-71
2023/06/30 06:55:04;;;;;;;16.10;14.73;;;19.30;99.90;;;;;;5029387;28;20551;-70
2023/06/30 06:57:32;;;;;;;20.53;18.53;;;19.30;99.90;;;;;;5011510;28;20453;-70
2023/06/30 07:00:00;;;;;;;20.33;18.63;;;19.40;99.90;;;;;;5029685;28;20443;-71
2023/06/30 07:02:32;;;;;;;20.97;19.20;;;19.60;99.90;;;;;;5028693;28;20956;-70
2023/06/30 07:05:00;;;;;;;22.43;20.40;;;19.70;99.90;;;;;;5029601;28;20990;-71
2023/06/30 07:07:28;;;;;;;17.43;15.97;;;19.70;99.90;;;;;;5029722;28;20995;-71
2023/06/30 07:10:01;;;;;;;23.37;20.97;;;19.70;99.90;;;;;;5029525;28;20959;-71
2023/06/30 07:12:29;;;;;;;20.27;18.20;;;19.80;99.90;;;;;;5028828;28;20443;-71
2023/06/30 07:14:57;;;;;;;19.17;17.47;;;19.90;99.90;;;;;;5029890;28;20981;-71
2023/06/30 07:17:25;;;;;;;17.30;15.57;;;19.90;99.90;;;;;;5030254;28;20456;-70
2023/06/30 07:19:53;;;;;;;17.90;16.57;;;20.00;99.90;;;;;;5029923;28;20556;-71
2023/06/30 07:22:22;;;;;;;17.50;15.87;;;19.90;99.90;;;;;;5029639;28;20441;-71
2023/06/30 07:24:50;;;;;;;18.73;16.67;;;19.90;99.90;;;;;;5030149;28;20464;-70
2023/06/30 07:27:20;;;;;;;18.87;17.20;;;19.90;99.90;;;;;;5030378;28;20453;-70
2023/06/30 07:29:49;;;;;;;18.30;16.70;;;19.90;99.90;;;;;;5029639;28;20471;-70
2023/06/30 07:32:17;;;;;;;18.20;16.50;;;19.90;99.90;;;;;;5030431;28;20491;-70
2023/06/30 07:34:45;;;;;;;16.20;14.70;;;20.00;99.90;;;;;;5031943;28;20491;-71
2023/06/30 07:37:13;;;;;;;18.70;16.83;;;20.00;99.90;;;;;;5033008;28;20440;-70
2023/06/30 07:39:41;;;;;;;17.57;15.97;;;20.10;99.90;;;;;;5033068;28;20507;-70
2023/06/30 07:42:09;;;;;;;17.60;16.20;;;20.20;99.90;;;;;;5032447;28;20452;-70
2023/06/30 07:44:39;;;;;;;21.17;19.27;;;20.10;99.90;;;;;;5031835;28;20488;-70
2023/06/30 07:47:07;;;;;;;18.80;17.00;;;19.90;99.90;;;;;;5032464;28;20527;-70
2023/06/30 07:49:35;;;;;;;21.37;19.20;;;19.90;99.90;;;;;;5032584;28;20477;-70
2023/06/30 07:52:03;;;;;;;21.90;19.63;;;19.80;99.90;;;;;;5032196;28;20445;-70
2023/06/30 07:54:31;;;;;;;23.77;21.77;;;19.80;99.90;;;;;;5031343;28;20465;-70
2023/06/30 07:56:59;;;;;;;23.57;21.40;;;19.70;99.90;;;;;;5032498;28;20536;-70
2023/06/30 07:59:27;;;;;;;24.27;22.10;;;19.70;99.90;;;;;;5032341;28;20529;-71
2023/06/30 08:01:57;;;;;;;25.02;22.73;;;19.70;99.90;;;;;;5041881;28;20502;-71
2023/06/30 08:04:25;;;;;;;22.30;20.30;;;19.70;99.90;;;;;;5044503;28;20237;-70
2023/06/30 08:06:54;;;;;;;19.03;17.43;;;19.80;99.90;;;;;;5058155;28;20443;-70
2023/06/30 08:09:22;;;;;;;19.90;18.03;;;19.90;99.90;;;;;;5043684;28;20447;-70
2023/06/30 08:11:50;;;;;;;17.30;15.60;;;20.00;99.90;;;;;;5040809;28;20472;-71
2023/06/30 08:14:18;;;;;;;17.30;15.10;;;19.90;99.90;;;;;;5041015;28;20564;-70
2023/06/30 08:16:46;;;;;;;18.10;16.20;;;19.80;99.90;;;;;;5039361;28;20437;-70
2023/06/30 08:19:16;;;;;;;17.30;15.60;;;19.70;99.90;;;;;;5041668;28;20465;-69
2023/06/30 08:22:04;;;;;;;16.47;14.80;;;19.50;99.90;;;;;;5038923;28;20444;-73
2023/06/30 08:24:33;;;;;;;20.90;16.90;;;19.30;99.90;;;;;;5040047;28;20484;-68
2023/06/30 08:27:01;;;;;;;20.10;17.20;;;19.20;99.90;;;;;;5045969;28;20451;-71
2023/06/30 08:29:29;;;;;;;20.43;17.03;;;19.10;99.90;;;;;;5052670;28;20440;-71
2023/06/30 08:31:58;;;;;;;26.80;20.50;;;18.90;99.90;;;;;;5047506;28;20445;-71
2023/06/30 08:34:27;;;;;;;21.57;17.90;;;18.80;99.90;;;;;;5030731;28;20445;-70
2023/06/30 08:36:55;;;;;;;24.70;19.93;;;18.60;99.90;;;;;;5031935;28;20471;-70
2023/06/30 08:39:23;;;;;;;22.27;19.40;;;18.40;99.90;;;;;;5034381;28;20440;-70
2023/06/30 08:41:54;;;;;;;28.83;22.67;;;18.30;99.90;;;;;;5036490;28;20506;-70
2023/06/30 08:44:24;;;;;;;22.87;19.40;;;18.20;99.90;;;;;;5032871;28;20556;-70
2023/06/30 08:46:53;;;;;;;29.03;21.07;;;18.20;99.90;;;;;;5031624;28;20491;-70
2023/06/30 08:49:23;;;;;;;27.67;20.67;;;18.20;99.90;;;;;;5031292;28;20436;-70
2023/06/30 08:51:56;;;;;;;22.87;20.40;;;18.10;99.90;;;;;;5031600;28;20444;-71
2023/06/30 08:54:25;;;;;;;27.50;20.63;;;18.10;99.90;;;;;;5030143;28;20561;-70
2023/06/30 08:56:55;;;;;;;24.97;21.00;;;18.10;99.90;;;;;;5031339;28;20449;-71
2023/06/30 08:59:23;;;;;;;24.30;21.47;;;18.20;99.90;;;;;;5030500;28;20433;-70
2023/06/30 09:01:53;;;;;;;28.30;21.97;;;18.30;99.90;;;;;;5031315;28;20441;-70
2023/06/30 09:04:23;;;;;;;25.60;21.50;;;18.40;99.90;;;;;;5030046;28;20484;-70
2023/06/30 09:06:54;;;;;;;23.90;20.77;;;18.50;99.90;;;;;;5031286;28;20441;-70
2023/06/30 09:09:26;;;;;;;27.60;22.17;;;18.60;99.90;;;;;;5030894;28;20449;-71
2023/06/30 09:11:55;;;;;;;24.37;21.43;;;18.60;99.90;;;;;;5030973;28;20445;-71
2023/06/30 09:14:24;;;;;;;23.57;20.53;;;18.70;99.90;;;;;;5029704;28;20453;-70
2023/06/30 09:16:52;;;;;;;22.73;20.33;;;18.80;99.90;;;;;;5030953;28;20437;-70
2023/06/30 09:19:20;;;;;;;24.50;21.90;;;18.80;99.90;;;;;;5030883;28;20437;-71
2023/06/30 09:21:50;;;;;;;25.87;22.23;;;18.80;99.90;;;;;;5030825;28;20460;-71
2023/06/30 09:24:20;;;;;;;26.20;22.20;;;18.80;99.90;;;;;;5029447;28;20909;-70
2023/06/30 09:26:49;;;;;;;25.27;22.17;;;18.80;99.90;;;;;;5030764;28;20540;-71
2023/06/30 09:29:21;;;;;;;25.73;21.93;;;19.00;99.90;;;;;;5030835;28;20548;-70
2023/06/30 09:31:51;;;;;;;25.47;21.77;;;19.10;99.90;;;;;;5030497;28;20932;-71
2023/06/30 09:34:20;;;;;;;23.63;20.73;;;19.30;99.90;;;;;;5029370;28;20461;-72
2023/06/30 09:36:48;;;;;;;22.43;19.67;;;19.30;99.90;;;;;;5030586;28;20506;-71
2023/06/30 09:39:16;;;;;;;21.53;19.23;;;19.40;99.90;;;;;;5030400;28;21037;-72
2023/06/30 09:41:47;;;;;;;21.57;19.27;;;19.40;99.90;;;;;;5039704;28;20518;-72
2023/06/30 09:44:17;;;;;;;27.07;23.77;;;19.40;99.90;;;;;;5029414;28;20556;-71
2023/06/30 09:46:46;;;;;;;23.97;19.53;;;19.50;99.90;;;;;;5030902;28;20859;-72
2023/06/30 09:49:24;;;;;;;24.50;22.00;;;19.60;99.90;;;;;;5036957;28;20453;-71
2023/06/30 09:51:54;;;;;;;20.40;18.30;;;19.70;99.90;;;;;;5045748;28;20437;-71
2023/06/30 09:54:23;;;;;;;21.70;19.17;;;19.70;99.90;;;;;;5037885;28;20459;-71
2023/06/30 09:57:11;;;;;;;19.93;17.83;;;19.70;99.90;;;;;;5043896;28;20445;-71
2023/06/30 09:59:39;;;;;;;21.63;19.40;;;19.60;99.90;;;;;;5047069;28;20454;-71
2023/06/30 10:02:10;;;;;;;24.93;20.70;;;19.70;99.90;;;;;;5042388;28;21143;-73
2023/06/30 10:04:38;;;;;;;19.40;17.43;;;19.70;99.90;;;;;;5047262;28;20512;-72
2023/06/30 10:07:07;;;;;;;20.00;17.90;;;19.70;99.90;;;;;;5055946;28;20580;-72
2023/06/30 10:09:36;;;;;;;20.77;18.60;;;19.80;99.90;;;;;;5050820;28;20509;-71
2023/06/30 10:12:07;;;;;;;20.27;18.10;;;19.70;99.90;;;;;;5056704;28;20884;-71
2023/06/30 10:14:38;;;;;;;25.23;18.80;;;19.70;99.90;;;;;;5050760;28;20512;-72
2023/06/30 10:17:07;;;;;;;19.67;17.67;;;19.70;99.90;;;;;;5032904;28;20515;-72
2023/06/30 10:19:37;;;;;;;22.20;19.30;;;19.70;99.90;;;;;;5050332;28;20435;-71
2023/06/30 10:22:05;;;;;;;20.90;18.70;;;19.70;99.90;;;;;;5039140;28;20441;-72
2023/06/30 10:24:37;;;;;;;22.70;19.30;;;19.70;99.90;;;;;;5044210;28;20559;-72
2023/06/30 10:27:07;;;;;;;22.33;19.10;;;19.80;99.90;;;;;;5033501;28;20452;-72
2023/06/30 10:29:37;;;;;;;20.33;18.17;;;19.90;99.90;;;;;;5043671;28;20445;-72
2023/06/30 10:32:06;;;;;;;22.73;20.47;;;19.90;99.90;;;;;;5038414;28;20461;-72
2023/06/30 10:34:35;;;;;;;21.93;19.73;;;19.90;99.90;;;;;;5056100;28;20863;-72
2023/06/30 10:37:04;;;;;;;21.00;19.00;;;20.00;99.90;;;;;;5068133;28;21011;-71
2023/06/30 10:39:33;;;;;;;22.83;20.43;;;20.20;99.90;;;;;;5069902;28;20471;-71
2023/06/30 10:42:01;;;;;;;22.37;20.17;;;20.20;99.90;;;;;;5070221;28;20477;-70
2023/06/30 10:44:44;;;;;;;22.83;20.57;;;20.20;99.90;;;;;;5068901;28;20482;-71
2023/06/30 10:47:12;;;;;;;28.53;21.43;;;20.10;99.90;;;;;;5069694;28;20431;-70
2023/06/30 10:49:41;;;;;;;25.40;22.80;;;20.00;99.90;;;;;;5048428;28;20444;-70
2023/06/30 10:52:10;;;;;;;28.03;23.03;;;20.00;99.90;;;;;;5034870;28;20864;-70
2023/06/30 10:54:40;;;;;;;28.50;25.60;;;20.10;99.90;;;;;;5048804;28;20965;-71
2023/06/30 10:57:11;;;;;;;27.07;24.37;;;20.20;99.90;;;;;;5067620;28;20493;-70
2023/06/30 10:59:42;;;;;;;28.73;25.83;;;20.30;99.90;;;;;;5069726;28;20455;-71
2023/06/30 11:02:14;;;;;;;29.53;26.53;;;20.30;99.90;;;;;;5069039;28;20449;-70
2023/06/30 11:04:43;;;;;;;30.30;27.20;;;20.20;99.90;;;;;;5067494;28;20537;-70
2023/06/30 11:07:16;;;;;;;32.23;28.90;;;20.10;99.90;;;;;;5070690;28;21035;-70
2023/06/30 11:09:58;;;;;;;34.37;30.37;;;20.00;99.90;;;;;;5073460;28;20445;-70
2023/06/30 11:12:28;;;;;;;33.43;29.97;;;19.90;99.90;;;;;;5071881;28;20529;-70
2023/06/30 11:14:59;;;;;;;35.13;31.53;;;19.90;99.90;;;;;;5072998;28;21051;-70
2023/06/30 11:17:28;;;;;;;31.83;28.63;;;19.90;99.90;;;;;;5072699;28;20443;-70
2023/06/30 11:20:09;;;;;;;33.17;29.70;;;19.90;99.90;;;;;;5073186;28;20439;-70
2023/06/30 11:22:37;;;;;;;34.70;31.10;;;20.00;99.90;;;;;;5071700;28;20525;-70
2023/06/30 11:25:08;;;;;;;36.10;31.37;;;20.10;99.90;;;;;;5072781;28;20471;-70
2023/06/30 11:27:37;;;;;;;36.83;31.87;;;20.20;99.90;;;;;;5072547;28;20446;-70
2023/06/30 11:30:08;;;;;;;35.80;32.00;;;20.40;99.90;;;;;;5037464;28;20912;-70
2023/06/30 11:32:37;;;;;;;35.73;32.03;;;20.50;99.90;;;;;;5052108;28;20902;-70
2023/06/30 11:35:07;;;;;;;37.27;33.20;;;20.50;99.90;;;;;;5063170;28;20431;-71
2023/06/30 11:37:36;;;;;;;36.83;32.80;;;20.50;99.90;;;;;;5040670;28;20433;-70
2023/06/30 11:40:06;;;;;;;36.23;32.50;;;20.50;99.90;;;;;;5038307;28;20820;-70
2023/06/30 11:42:40;;;;;;;37.57;33.50;;;20.70;99.90;;;;;;5040141;28;20482;-70
2023/06/30 11:45:09;;;;;;;37.80;33.83;;;20.60;99.90;;;;;;5041553;28;20467;-70
2023/06/30 11:47:44;;;;;;;36.00;32.00;;;20.70;99.90;;;;;;5038824;28;20499;-70
2023/06/30 11:50:13;;;;;;;35.17;31.57;;;20.80;99.90;;;;;;5040115;28;20441;-70
2023/06/30 11:52:42;;;;;;;36.23;32.70;;;20.90;99.90;;;;;;5038603;28;20433;-69
2023/06/30 11:55:11;;;;;;;34.60;30.77;;;21.10;99.90;;;;;;5039379;28;20476;-70
2023/06/30 11:57:40;;;;;;;33.33;29.93;;;21.10;99.90;;;;;;5046558;28;20975;-71
2023/06/30 12:00:12;;;;;;;31.93;28.53;;;21.10;99.90;;;;;;5032060;28;20487;-70
2023/06/30 12:02:45;;;;;;;33.83;29.33;;;21.00;99.90;;;;;;5039612;28;20460;-69
2023/06/30 12:05:18;;;;;;;31.17;27.80;;;21.00;99.90;;;;;;5037277;28;20508;-70
2023/06/30 12:07:47;;;;;;;31.77;28.67;;;21.00;99.90;;;;;;5042617;28;20490;-70
2023/06/30 12:10:15;;;;;;;28.67;25.83;;;21.00;99.90;;;;;;5039400;28;20542;-70
2023/06/30 12:12:44;;;;;;;34.40;29.70;;;21.00;99.90;;;;;;5036783;28;20445;-70
2023/06/30 12:15:14;;;;;;;33.37;30.10;;;20.90;99.90;;;;;;5039303;28;20833;-70
2023/06/30 12:17:43;;;;;;;32.97;29.50;;;20.90;99.90;;;;;;5034814;28;20433;-70
2023/06/30 12:20:12;;;;;;;30.67;27.70;;;21.00;99.90;;;;;;5030353;28;20474;-69
2023/06/30 12:22:44;;;;;;;32.33;29.03;;;21.10;99.90;;;;;;5039748;28;20432;-69
2023/06/30 12:25:14;;;;;;;34.10;28.83;;;21.20;99.90;;;;;;5037338;28;20447;-69
2023/06/30 12:27:43;;;;;;;30.57;27.37;;;21.10;99.90;;;;;;5048473;28;20471;-68
2023/06/30 12:30:16;;;;;;;31.20;27.93;;;21.00;99.90;;;;;;5037359;28;20513;-70
2023/06/30 12:32:45;;;;;;;30.90;27.63;;;21.00;99.90;;;;;;5037313;28;20495;-70
2023/06/30 12:35:13;;;;;;;31.20;27.90;;;21.00;99.90;;;;;;5038948;28;20495;-69
2023/06/30 12:37:44;;;;;;;30.63;27.63;;;20.90;99.90;;;;;;5043885;28;20474;-70
2023/06/30 12:40:13;;;;;;;30.50;27.40;;;21.00;99.90;;;;;;5034651;28;20503;-69
2023/06/30 12:42:47;;;;;;;31.03;27.80;;;21.00;99.90;;;;;;5044691;28;21270;-70
2023/06/30 12:45:17;;;;;;;30.97;26.67;;;21.10;99.90;;;;;;5040577;28;20436;-70